sensor_id;sensor_type;location;lat;lon;timestamp;P1;durP1;ratioP1;P2;durP2;ratioP2
33786;SDS011;29742;51.540;9.358;2022-11-30T00:04:49;4.57;;;3.22;;
33786;SDS011;29742;51.540;9.358;2022-11-30T00:09:49;5.38;;;3.78;;
33786;SDS011;29742;51.540;9.358;2022-11-30T00:14:51;4.15;;;3.05;;
33786;SDS011;29742;51.540;9.358;2022-11-30T00:19:52;4.35;;;3.20;;
33786;SDS011;29742;51.540;9.358;2022-11-30T00:24:53;4.28;;;2.67;;
33786;SDS011;29742;51.540;9.358;2022-11-30T00:29:54;5.47;;;2.53;;
33786;SDS011;29742;51.540;9.358;2022-11-30T00:34:55;4.43;;;3.00;;
33786;SDS011;29742;51.540;9.358;2022-11-30T00:39:56;4.15;;;3.17;;
33786;SDS011;29742;51.540;9.358;2022-11-30T00:44:57;5.68;;;3.05;;
33786;SDS011;29742;51.540;9.358;2022-11-30T00:49:59;7.72;;;3.53;;
33786;SDS011;29742;51.540;9.358;2022-11-30T00:55:00;6.38;;;3.63;;
33786;SDS011;29742;51.540;9.358;2022-11-30T01:00:00;4.57;;;3.05;;
33786;SDS011;29742;51.540;9.358;2022-11-30T01:05:01;3.72;;;2.75;;
33786;SDS011;29742;51.540;9.358;2022-11-30T01:10:02;10.13;;;3.35;;
33786;SDS011;29742;51.540;9.358;2022-11-30T01:15:04;6.65;;;3.33;;
33786;SDS011;29742;51.540;9.358;2022-11-30T01:20:05;5.63;;;3.45;;
33786;SDS011;29742;51.540;9.358;2022-11-30T01:25:07;6.07;;;3.47;;
33786;SDS011;29742;51.540;9.358;2022-11-30T01:30:08;6.70;;;3.40;;
33786;SDS011;29742;51.540;9.358;2022-11-30T01:35:09;5.53;;;3.30;;
33786;SDS011;29742;51.540;9.358;2022-11-30T01:40:10;6.15;;;3.22;;
33786;SDS011;29742;51.540;9.358;2022-11-30T01:45:12;4.18;;;3.10;;
33786;SDS011;29742;51.540;9.358;2022-11-30T02:00:21;3.95;;;3.30;;
33786;SDS011;29742;51.540;9.358;2022-11-30T02:05:23;6.93;;;3.15;;
33786;SDS011;29742;51.540;9.358;2022-11-30T02:10:26;4.75;;;3.28;;
33786;SDS011;29742;51.540;9.358;2022-11-30T02:15:28;3.05;;;2.45;;
33786;SDS011;29742;51.540;9.358;2022-11-30T02:31:14;5.22;;;3.00;;
33786;SDS011;29742;51.540;9.358;2022-11-30T02:36:16;3.83;;;2.22;;
33786;SDS011;29742;51.540;9.358;2022-11-30T02:41:17;3.38;;;2.15;;
33786;SDS011;29742;51.540;9.358;2022-11-30T02:46:25;3.92;;;2.95;;
33786;SDS011;29742;51.540;9.358;2022-11-30T02:51:29;3.13;;;2.30;;
33786;SDS011;29742;51.540;9.358;2022-11-30T02:56:31;4.47;;;3.20;;
33786;SDS011;29742;51.540;9.358;2022-11-30T03:01:33;3.58;;;2.28;;
33786;SDS011;29742;51.540;9.358;2022-11-30T03:06:34;3.75;;;2.75;;
33786;SDS011;29742;51.540;9.358;2022-11-30T03:11:35;3.28;;;2.45;;
33786;SDS011;29742;51.540;9.358;2022-11-30T03:16:36;3.20;;;2.20;;
33786;SDS011;29742;51.540;9.358;2022-11-30T03:21:37;3.22;;;2.20;;
33786;SDS011;29742;51.540;9.358;2022-11-30T03:26:38;2.92;;;2.25;;
33786;SDS011;29742;51.540;9.358;2022-11-30T03:31:39;3.45;;;2.40;;
33786;SDS011;29742;51.540;9.358;2022-11-30T03:36:40;3.20;;;2.22;;
33786;SDS011;29742;51.540;9.358;2022-11-30T03:41:41;3.22;;;2.13;;
33786;SDS011;29742;51.540;9.358;2022-11-30T03:46:42;4.78;;;2.65;;
33786;SDS011;29742;51.540;9.358;2022-11-30T03:51:43;3.28;;;2.22;;
33786;SDS011;29742;51.540;9.358;2022-11-30T03:56:44;2.15;;;1.95;;
33786;SDS011;29742;51.540;9.358;2022-11-30T04:01:45;2.58;;;1.95;;
33786;SDS011;29742;51.540;9.358;2022-11-30T04:06:46;2.35;;;2.00;;
33786;SDS011;29742;51.540;9.358;2022-11-30T04:11:47;2.92;;;2.15;;
33786;SDS011;29742;51.540;9.358;2022-11-30T04:16:48;4.68;;;2.45;;
33786;SDS011;29742;51.540;9.358;2022-11-30T04:21:48;1.95;;;1.60;;
33786;SDS011;29742;51.540;9.358;2022-11-30T04:26:50;4.68;;;2.67;;
33786;SDS011;29742;51.540;9.358;2022-11-30T04:31:51;2.67;;;2.03;;
33786;SDS011;29742;51.540;9.358;2022-11-30T04:36:52;3.50;;;2.22;;
33786;SDS011;29742;51.540;9.358;2022-11-30T04:41:53;2.92;;;2.00;;
33786;SDS011;29742;51.540;9.358;2022-11-30T04:46:54;3.20;;;2.35;;
33786;SDS011;29742;51.540;9.358;2022-11-30T04:51:55;2.53;;;2.10;;
33786;SDS011;29742;51.540;9.358;2022-11-30T04:56:56;2.53;;;2.28;;
33786;SDS011;29742;51.540;9.358;2022-11-30T05:01:57;3.15;;;2.45;;
33786;SDS011;29742;51.540;9.358;2022-11-30T05:06:58;2.13;;;1.48;;
33786;SDS011;29742;51.540;9.358;2022-11-30T05:11:58;2.00;;;1.80;;
33786;SDS011;29742;51.540;9.358;2022-11-30T05:16:59;2.20;;;1.80;;
33786;SDS011;29742;51.540;9.358;2022-11-30T05:22:00;2.13;;;1.63;;
33786;SDS011;29742;51.540;9.358;2022-11-30T05:27:01;1.63;;;1.38;;
33786;SDS011;29742;51.540;9.358;2022-11-30T05:32:02;1.70;;;1.38;;
33786;SDS011;29742;51.540;9.358;2022-11-30T05:37:03;1.55;;;1.38;;
33786;SDS011;29742;51.540;9.358;2022-11-30T05:42:04;4.57;;;1.58;;
33786;SDS011;29742;51.540;9.358;2022-11-30T05:47:05;2.13;;;1.48;;
33786;SDS011;29742;51.540;9.358;2022-11-30T05:52:06;2.15;;;1.65;;
33786;SDS011;29742;51.540;9.358;2022-11-30T05:57:07;2.42;;;1.48;;
33786;SDS011;29742;51.540;9.358;2022-11-30T06:02:08;1.42;;;1.05;;
33786;SDS011;29742;51.540;9.358;2022-11-30T06:07:09;1.85;;;1.35;;
33786;SDS011;29742;51.540;9.358;2022-11-30T06:12:10;1.75;;;1.08;;
33786;SDS011;29742;51.540;9.358;2022-11-30T06:17:11;1.60;;;1.42;;
33786;SDS011;29742;51.540;9.358;2022-11-30T06:22:12;2.13;;;1.42;;
33786;SDS011;29742;51.540;9.358;2022-11-30T06:27:13;1.10;;;1.00;;
33786;SDS011;29742;51.540;9.358;2022-11-30T06:32:14;2.05;;;1.27;;
33786;SDS011;29742;51.540;9.358;2022-11-30T06:37:15;2.13;;;1.35;;
33786;SDS011;29742;51.540;9.358;2022-11-30T06:42:16;1.83;;;1.30;;
33786;SDS011;29742;51.540;9.358;2022-11-30T06:47:18;1.60;;;1.20;;
33786;SDS011;29742;51.540;9.358;2022-11-30T06:52:19;2.17;;;1.27;;
33786;SDS011;29742;51.540;9.358;2022-11-30T06:57:20;1.65;;;1.27;;
33786;SDS011;29742;51.540;9.358;2022-11-30T07:02:25;1.65;;;1.30;;
33786;SDS011;29742;51.540;9.358;2022-11-30T07:07:29;2.78;;;1.55;;
33786;SDS011;29742;51.540;9.358;2022-11-30T07:12:32;1.52;;;1.20;;
33786;SDS011;29742;51.540;9.358;2022-11-30T07:17:33;2.25;;;1.35;;
33786;SDS011;29742;51.540;9.358;2022-11-30T07:22:34;2.40;;;1.58;;
33786;SDS011;29742;51.540;9.358;2022-11-30T07:27:35;1.30;;;1.20;;
33786;SDS011;29742;51.540;9.358;2022-11-30T07:32:36;1.02;;;0.90;;
33786;SDS011;29742;51.540;9.358;2022-11-30T07:37:37;1.20;;;1.10;;
33786;SDS011;29742;51.540;9.358;2022-11-30T07:42:38;2.53;;;1.27;;
33786;SDS011;29742;51.540;9.358;2022-11-30T07:47:39;1.58;;;1.25;;
33786;SDS011;29742;51.540;9.358;2022-11-30T07:52:40;1.30;;;1.10;;
33786;SDS011;29742;51.540;9.358;2022-11-30T07:57:41;1.48;;;0.93;;
33786;SDS011;29742;51.540;9.358;2022-11-30T08:02:42;1.60;;;1.20;;
33786;SDS011;29742;51.540;9.358;2022-11-30T08:07:43;1.27;;;1.08;;
33786;SDS011;29742;51.540;9.358;2022-11-30T08:12:44;1.40;;;1.05;;
33786;SDS011;29742;51.540;9.358;2022-11-30T08:17:45;1.48;;;1.10;;
33786;SDS011;29742;51.540;9.358;2022-11-30T08:22:49;3.13;;;1.50;;
33786;SDS011;29742;51.540;9.358;2022-11-30T08:27:51;1.85;;;1.20;;
33786;SDS011;29742;51.540;9.358;2022-11-30T08:32:52;1.75;;;1.23;;
33786;SDS011;29742;51.540;9.358;2022-11-30T08:37:53;1.17;;;0.93;;
33786;SDS011;29742;51.540;9.358;2022-11-30T08:42:54;1.17;;;1.00;;
33786;SDS011;29742;51.540;9.358;2022-11-30T08:47:55;1.35;;;1.13;;
33786;SDS011;29742;51.540;9.358;2022-11-30T08:52:56;1.45;;;0.82;;
33786;SDS011;29742;51.540;9.358;2022-11-30T08:57:57;2.53;;;1.27;;
33786;SDS011;29742;51.540;9.358;2022-11-30T09:02:58;1.83;;;1.00;;
33786;SDS011;29742;51.540;9.358;2022-11-30T09:07:59;1.55;;;1.20;;
33786;SDS011;29742;51.540;9.358;2022-11-30T09:13:00;3.83;;;1.02;;
33786;SDS011;29742;51.540;9.358;2022-11-30T09:18:01;1.10;;;0.93;;
33786;SDS011;29742;51.540;9.358;2022-11-30T09:23:02;1.63;;;1.23;;
33786;SDS011;29742;51.540;9.358;2022-11-30T09:28:03;1.58;;;0.90;;
33786;SDS011;29742;51.540;9.358;2022-11-30T09:33:04;2.08;;;1.30;;
33786;SDS011;29742;51.540;9.358;2022-11-30T09:38:05;2.25;;;1.23;;
33786;SDS011;29742;51.540;9.358;2022-11-30T09:43:17;2.55;;;1.20;;
33786;SDS011;29742;51.540;9.358;2022-11-30T09:53:37;2.95;;;1.33;;
33786;SDS011;29742;51.540;9.358;2022-11-30T09:58:43;2.33;;;1.33;;
33786;SDS011;29742;51.540;9.358;2022-11-30T10:03:46;1.73;;;1.20;;
33786;SDS011;29742;51.540;9.358;2022-11-30T10:14:21;3.42;;;1.63;;
33786;SDS011;29742;51.540;9.358;2022-11-30T10:19:43;3.60;;;1.58;;
33786;SDS011;29742;51.540;9.358;2022-11-30T10:24:54;4.83;;;1.70;;
33786;SDS011;29742;51.540;9.358;2022-11-30T10:29:56;2.22;;;1.13;;
33786;SDS011;29742;51.540;9.358;2022-11-30T10:35:00;2.38;;;1.17;;
33786;SDS011;29742;51.540;9.358;2022-11-30T10:40:04;2.17;;;1.33;;
33786;SDS011;29742;51.540;9.358;2022-11-30T10:45:14;3.50;;;1.55;;
33786;SDS011;29742;51.540;9.358;2022-11-30T10:50:16;1.85;;;1.38;;
33786;SDS011;29742;51.540;9.358;2022-11-30T10:55:18;2.38;;;1.60;;
33786;SDS011;29742;51.540;9.358;2022-11-30T11:00:20;2.22;;;1.40;;
33786;SDS011;29742;51.540;9.358;2022-11-30T11:05:22;3.90;;;1.65;;
33786;SDS011;29742;51.540;9.358;2022-11-30T11:10:32;2.85;;;1.90;;
33786;SDS011;29742;51.540;9.358;2022-11-30T11:15:34;3.13;;;1.60;;
33786;SDS011;29742;51.540;9.358;2022-11-30T11:20:35;4.43;;;2.55;;
33786;SDS011;29742;51.540;9.358;2022-11-30T11:25:38;5.78;;;1.85;;
33786;SDS011;29742;51.540;9.358;2022-11-30T11:30:42;3.20;;;1.98;;
33786;SDS011;29742;51.540;9.358;2022-11-30T11:35:49;2.78;;;1.42;;
33786;SDS011;29742;51.540;9.358;2022-11-30T11:45:55;6.65;;;1.88;;
33786;SDS011;29742;51.540;9.358;2022-11-30T11:51:04;5.38;;;2.33;;
33786;SDS011;29742;51.540;9.358;2022-11-30T12:01:09;6.07;;;2.20;;
33786;SDS011;29742;51.540;9.358;2022-11-30T12:26:33;21.45;;;6.07;;
33786;SDS011;29742;51.540;9.358;2022-11-30T12:43:06;8.80;;;3.13;;
33786;SDS011;29742;51.540;9.358;2022-11-30T12:51:01;8.48;;;3.10;;
33786;SDS011;29742;51.540;9.358;2022-11-30T12:56:29;7.28;;;3.17;;
33786;SDS011;29742;51.540;9.358;2022-11-30T13:01:51;4.63;;;2.22;;
33786;SDS011;29742;51.540;9.358;2022-11-30T13:32:10;1.13;;;0.70;;
33786;SDS011;29742;51.540;9.358;2022-11-30T13:37:21;0.75;;;0.50;;
33786;SDS011;29742;51.540;9.358;2022-11-30T13:43:33;1.17;;;0.70;;
33786;SDS011;29742;51.540;9.358;2022-11-30T14:13:30;2.08;;;0.40;;
33786;SDS011;29742;51.540;9.358;2022-11-30T14:18:41;1.65;;;0.30;;
33786;SDS011;29742;51.540;9.358;2022-11-30T14:28:57;1.20;;;0.40;;
33786;SDS011;29742;51.540;9.358;2022-11-30T14:34:26;0.20;;;0.10;;
33786;SDS011;29742;51.540;9.358;2022-11-30T14:39:33;2.53;;;0.50;;
33786;SDS011;29742;51.540;9.358;2022-11-30T14:44:38;0.40;;;0.32;;
33786;SDS011;29742;51.540;9.358;2022-11-30T14:49:45;1.05;;;0.60;;
33786;SDS011;29742;51.540;9.358;2022-11-30T15:00:25;0.70;;;0.50;;
33786;SDS011;29742;51.540;9.358;2022-11-30T15:05:28;0.83;;;0.37;;
33786;SDS011;29742;51.540;9.358;2022-11-30T15:10:30;0.47;;;0.47;;
33786;SDS011;29742;51.540;9.358;2022-11-30T15:15:32;0.52;;;0.50;;
33786;SDS011;29742;51.540;9.358;2022-11-30T15:20:36;0.63;;;0.30;;
33786;SDS011;29742;51.540;9.358;2022-11-30T15:25:43;0.88;;;0.32;;
33786;SDS011;29742;51.540;9.358;2022-11-30T15:30:45;0.65;;;0.30;;
33786;SDS011;29742;51.540;9.358;2022-11-30T15:35:47;1.35;;;0.30;;
33786;SDS011;29742;51.540;9.358;2022-11-30T15:40:49;0.38;;;0.30;;
33786;SDS011;29742;51.540;9.358;2022-11-30T15:45:52;0.30;;;0.22;;
33786;SDS011;29742;51.540;9.358;2022-11-30T15:50:56;0.40;;;0.20;;
33786;SDS011;29742;51.540;9.358;2022-11-30T16:01:04;0.43;;;0.22;;
33786;SDS011;29742;51.540;9.358;2022-11-30T16:06:12;0.20;;;0.17;;
33786;SDS011;29742;51.540;9.358;2022-11-30T16:11:13;0.65;;;0.40;;
33786;SDS011;29742;51.540;9.358;2022-11-30T16:16:25;0.40;;;0.30;;
33786;SDS011;29742;51.540;9.358;2022-11-30T16:21:28;0.35;;;0.22;;
33786;SDS011;29742;51.540;9.358;2022-11-30T16:26:29;0.50;;;0.40;;
33786;SDS011;29742;51.540;9.358;2022-11-30T16:31:29;0.40;;;0.38;;
33786;SDS011;29742;51.540;9.358;2022-11-30T16:36:29;0.40;;;0.40;;
33786;SDS011;29742;51.540;9.358;2022-11-30T16:41:30;1.05;;;0.40;;
33786;SDS011;29742;51.540;9.358;2022-11-30T16:46:30;0.57;;;0.40;;
33786;SDS011;29742;51.540;9.358;2022-11-30T16:51:31;0.47;;;0.32;;
33786;SDS011;29742;51.540;9.358;2022-11-30T16:56:33;0.50;;;0.30;;
33786;SDS011;29742;51.540;9.358;2022-11-30T17:01:35;0.30;;;0.30;;
33786;SDS011;29742;51.540;9.358;2022-11-30T17:06:37;0.40;;;0.40;;
33786;SDS011;29742;51.540;9.358;2022-11-30T17:11:38;0.70;;;0.57;;
33786;SDS011;29742;51.540;9.358;2022-11-30T17:16:39;1.40;;;0.65;;
33786;SDS011;29742;51.540;9.358;2022-11-30T17:21:40;2.30;;;1.00;;
33786;SDS011;29742;51.540;9.358;2022-11-30T17:26:41;4.47;;;1.17;;
33786;SDS011;29742;51.540;9.358;2022-11-30T17:31:42;2.60;;;1.23;;
33786;SDS011;29742;51.540;9.358;2022-11-30T17:36:42;2.45;;;1.08;;
33786;SDS011;29742;51.540;9.358;2022-11-30T17:41:43;0.90;;;0.60;;
33786;SDS011;29742;51.540;9.358;2022-11-30T17:46:43;4.38;;;1.13;;
33786;SDS011;29742;51.540;9.358;2022-11-30T17:51:43;1.52;;;0.85;;
33786;SDS011;29742;51.540;9.358;2022-11-30T17:56:44;0.98;;;0.70;;
33786;SDS011;29742;51.540;9.358;2022-11-30T18:01:45;1.15;;;0.80;;
33786;SDS011;29742;51.540;9.358;2022-11-30T18:06:45;1.17;;;0.75;;
33786;SDS011;29742;51.540;9.358;2022-11-30T18:11:45;2.10;;;0.77;;
33786;SDS011;29742;51.540;9.358;2022-11-30T18:16:46;1.70;;;1.05;;
33786;SDS011;29742;51.540;9.358;2022-11-30T18:21:46;1.17;;;0.60;;
33786;SDS011;29742;51.540;9.358;2022-11-30T18:26:46;1.20;;;0.70;;
33786;SDS011;29742;51.540;9.358;2022-11-30T18:31:48;2.42;;;0.80;;
33786;SDS011;29742;51.540;9.358;2022-11-30T18:36:50;0.60;;;0.40;;
33786;SDS011;29742;51.540;9.358;2022-11-30T18:41:50;1.63;;;0.70;;
33786;SDS011;29742;51.540;9.358;2022-11-30T18:46:50;1.23;;;0.97;;
33786;SDS011;29742;51.540;9.358;2022-11-30T18:51:51;0.82;;;0.60;;
33786;SDS011;29742;51.540;9.358;2022-11-30T18:56:51;1.95;;;1.05;;
33786;SDS011;29742;51.540;9.358;2022-11-30T19:01:51;2.07;;;0.90;;
33786;SDS011;29742;51.540;9.358;2022-11-30T19:06:52;1.55;;;0.90;;
33786;SDS011;29742;51.540;9.358;2022-11-30T19:11:52;1.55;;;0.82;;
33786;SDS011;29742;51.540;9.358;2022-11-30T19:16:53;1.40;;;0.75;;
33786;SDS011;29742;51.540;9.358;2022-11-30T19:21:53;1.23;;;0.87;;
33786;SDS011;29742;51.540;9.358;2022-11-30T19:26:53;1.40;;;0.95;;
33786;SDS011;29742;51.540;9.358;2022-11-30T19:31:54;0.67;;;0.50;;
33786;SDS011;29742;51.540;9.358;2022-11-30T19:36:54;1.55;;;0.90;;
33786;SDS011;29742;51.540;9.358;2022-11-30T19:41:54;1.88;;;1.17;;
33786;SDS011;29742;51.540;9.358;2022-11-30T19:46:55;0.98;;;0.63;;
33786;SDS011;29742;51.540;9.358;2022-11-30T19:51:55;1.13;;;0.82;;
33786;SDS011;29742;51.540;9.358;2022-11-30T19:56:55;1.05;;;0.68;;
33786;SDS011;29742;51.540;9.358;2022-11-30T20:01:57;1.00;;;0.75;;
33786;SDS011;29742;51.540;9.358;2022-11-30T20:06:59;1.30;;;0.70;;
33786;SDS011;29742;51.540;9.358;2022-11-30T20:11:59;1.73;;;0.88;;
33786;SDS011;29742;51.540;9.358;2022-11-30T20:17:00;1.63;;;1.02;;
33786;SDS011;29742;51.540;9.358;2022-11-30T20:22:00;1.25;;;0.70;;
33786;SDS011;29742;51.540;9.358;2022-11-30T20:27:03;0.85;;;0.65;;
33786;SDS011;29742;51.540;9.358;2022-11-30T20:32:04;1.08;;;0.98;;
33786;SDS011;29742;51.540;9.358;2022-11-30T20:37:04;1.08;;;0.70;;
33786;SDS011;29742;51.540;9.358;2022-11-30T20:42:05;2.28;;;1.08;;
33786;SDS011;29742;51.540;9.358;2022-11-30T20:47:05;1.60;;;0.98;;
33786;SDS011;29742;51.540;9.358;2022-11-30T20:52:05;1.48;;;0.90;;
33786;SDS011;29742;51.540;9.358;2022-11-30T20:57:06;2.50;;;1.10;;
33786;SDS011;29742;51.540;9.358;2022-11-30T21:02:08;1.10;;;0.93;;
33786;SDS011;29742;51.540;9.358;2022-11-30T21:07:08;1.23;;;0.98;;
33786;SDS011;29742;51.540;9.358;2022-11-30T21:12:08;1.48;;;1.05;;
33786;SDS011;29742;51.540;9.358;2022-11-30T21:17:09;1.80;;;1.00;;
33786;SDS011;29742;51.540;9.358;2022-11-30T21:22:09;0.87;;;0.80;;
33786;SDS011;29742;51.540;9.358;2022-11-30T21:27:10;1.92;;;1.45;;
33786;SDS011;29742;51.540;9.358;2022-11-30T21:32:11;1.50;;;1.10;;
33786;SDS011;29742;51.540;9.358;2022-11-30T21:37:11;1.50;;;1.00;;
33786;SDS011;29742;51.540;9.358;2022-11-30T21:42:12;1.27;;;0.90;;
33786;SDS011;29742;51.540;9.358;2022-11-30T21:47:12;1.55;;;1.05;;
33786;SDS011;29742;51.540;9.358;2022-11-30T21:52:13;1.38;;;0.98;;
33786;SDS011;29742;51.540;9.358;2022-11-30T21:57:13;1.08;;;0.80;;
33786;SDS011;29742;51.540;9.358;2022-11-30T22:02:14;0.93;;;0.80;;
33786;SDS011;29742;51.540;9.358;2022-11-30T22:07:14;0.93;;;0.68;;
33786;SDS011;29742;51.540;9.358;2022-11-30T22:12:14;1.23;;;0.95;;
33786;SDS011;29742;51.540;9.358;2022-11-30T22:17:15;1.10;;;0.90;;
33786;SDS011;29742;51.540;9.358;2022-11-30T22:22:15;1.45;;;1.02;;
33786;SDS011;29742;51.540;9.358;2022-11-30T22:27:15;1.67;;;1.10;;
33786;SDS011;29742;51.540;9.358;2022-11-30T22:32:16;1.73;;;1.40;;
33786;SDS011;29742;51.540;9.358;2022-11-30T22:37:19;1.90;;;1.27;;
33786;SDS011;29742;51.540;9.358;2022-11-30T22:42:19;1.33;;;1.23;;
33786;SDS011;29742;51.540;9.358;2022-11-30T22:47:20;1.42;;;1.13;;
33786;SDS011;29742;51.540;9.358;2022-11-30T22:52:20;1.33;;;1.02;;
33786;SDS011;29742;51.540;9.358;2022-11-30T22:57:20;1.25;;;0.93;;
33786;SDS011;29742;51.540;9.358;2022-11-30T23:02:21;1.73;;;1.23;;
33786;SDS011;29742;51.540;9.358;2022-11-30T23:07:21;2.05;;;1.25;;
33786;SDS011;29742;51.540;9.358;2022-11-30T23:12:21;1.75;;;1.25;;
33786;SDS011;29742;51.540;9.358;2022-11-30T23:17:22;1.48;;;1.15;;
33786;SDS011;29742;51.540;9.358;2022-11-30T23:22:22;1.10;;;0.83;;
33786;SDS011;29742;51.540;9.358;2022-11-30T23:27:22;2.53;;;1.40;;
33786;SDS011;29742;51.540;9.358;2022-11-30T23:32:23;1.98;;;1.20;;
33786;SDS011;29742;51.540;9.358;2022-11-30T23:37:23;2.57;;;1.47;;
33786;SDS011;29742;51.540;9.358;2022-11-30T23:42:23;2.40;;;1.57;;
33786;SDS011;29742;51.540;9.358;2022-11-30T23:47:23;1.67;;;1.20;;
33786;SDS011;29742;51.540;9.358;2022-11-30T23:52:24;1.80;;;1.23;;
33786;SDS011;29742;51.540;9.358;2022-11-30T23:57:24;1.40;;;1.07;;
